sensor_id;sensor_type;location;lat;lon;timestamp;temperature;humidity
9658;DHT22;4867;48.112;11.622;2023-05-31T00:01:35;15.10;99.90
9658;DHT22;4867;48.112;11.622;2023-05-31T00:04:02;15.00;99.90
9658;DHT22;4867;48.112;11.622;2023-05-31T00:06:30;15.00;99.90
9658;DHT22;4867;48.112;11.622;2023-05-31T00:08:57;15.00;99.90
9658;DHT22;4867;48.112;11.622;2023-05-31T00:11:25;14.90;99.90
9658;DHT22;4867;48.112;11.622;2023-05-31T00:13:53;14.90;99.90
9658;DHT22;4867;48.112;11.622;2023-05-31T00:16:20;14.90;99.90
9658;DHT22;4867;48.112;11.622;2023-05-31T00:19:07;14.90;99.90
9658;DHT22;4867;48.112;11.622;2023-05-31T00:21:35;14.80;99.90
9658;DHT22;4867;48.112;11.622;2023-05-31T00:24:02;14.70;99.90
9658;DHT22;4867;48.112;11.622;2023-05-31T00:26:30;14.70;99.90
9658;DHT22;4867;48.112;11.622;2023-05-31T00:28:57;14.70;99.90
9658;DHT22;4867;48.112;11.622;2023-05-31T00:31:24;14.70;99.90
9658;DHT22;4867;48.112;11.622;2023-05-31T00:33:52;14.70;99.90
9658;DHT22;4867;48.112;11.622;2023-05-31T00:36:19;14.60;99.90
9658;DHT22;4867;48.112;11.622;2023-05-31T00:38:46;14.50;99.90
9658;DHT22;4867;48.112;11.622;2023-05-31T00:41:14;14.50;99.90
9658;DHT22;4867;48.112;11.622;2023-05-31T00:43:41;14.40;99.90
9658;DHT22;4867;48.112;11.622;2023-05-31T00:46:13;14.40;99.90
9658;DHT22;4867;48.112;11.622;2023-05-31T00:48:46;14.30;99.90
9658;DHT22;4867;48.112;11.622;2023-05-31T00:51:13;14.40;99.90
9658;DHT22;4867;48.112;11.622;2023-05-31T00:53:41;14.30;99.90
9658;DHT22;4867;48.112;11.622;2023-05-31T00:56:12;14.30;99.90
9658;DHT22;4867;48.112;11.622;2023-05-31T00:58:41;14.30;99.90
9658;DHT22;4867;48.112;11.622;2023-05-31T01:01:09;14.30;99.90
9658;DHT22;4867;48.112;11.622;2023-05-31T01:03:37;14.20;99.90
9658;DHT22;4867;48.112;11.622;2023-05-31T01:06:05;14.20;99.90
9658;DHT22;4867;48.112;11.622;2023-05-31T01:08:32;14.10;99.90
9658;DHT22;4867;48.112;11.622;2023-05-31T01:11:05;14.10;99.90
9658;DHT22;4867;48.112;11.622;2023-05-31T01:13:57;14.10;99.90
9658;DHT22;4867;48.112;11.622;2023-05-31T01:16:33;14.10;99.90
9658;DHT22;4867;48.112;11.622;2023-05-31T01:19:05;14.10;99.90
9658;DHT22;4867;48.112;11.622;2023-05-31T01:21:56;14.00;99.90
9658;DHT22;4867;48.112;11.622;2023-05-31T01:24:40;14.10;99.90
9658;DHT22;4867;48.112;11.622;2023-05-31T01:27:10;14.00;99.90
9658;DHT22;4867;48.112;11.622;2023-05-31T01:29:39;13.90;99.90
9658;DHT22;4867;48.112;11.622;2023-05-31T01:32:07;13.90;99.90
9658;DHT22;4867;48.112;11.622;2023-05-31T01:34:36;13.80;99.90
9658;DHT22;4867;48.112;11.622;2023-05-31T01:37:03;13.80;99.90
9658;DHT22;4867;48.112;11.622;2023-05-31T01:39:30;13.80;99.90
9658;DHT22;4867;48.112;11.622;2023-05-31T01:41:59;13.80;99.90
9658;DHT22;4867;48.112;11.622;2023-05-31T01:44:32;13.70;99.90
9658;DHT22;4867;48.112;11.622;2023-05-31T01:46:59;13.70;99.90
9658;DHT22;4867;48.112;11.622;2023-05-31T01:49:27;13.70;99.90
9658;DHT22;4867;48.112;11.622;2023-05-31T01:51:56;13.50;99.90
9658;DHT22;4867;48.112;11.622;2023-05-31T01:54:25;13.50;99.90
9658;DHT22;4867;48.112;11.622;2023-05-31T01:56:53;13.40;99.90
9658;DHT22;4867;48.112;11.622;2023-05-31T01:59:21;13.30;99.90
9658;DHT22;4867;48.112;11.622;2023-05-31T02:01:49;13.30;99.90
9658;DHT22;4867;48.112;11.622;2023-05-31T02:04:18;13.20;99.90
9658;DHT22;4867;48.112;11.622;2023-05-31T02:06:45;13.10;99.90
9658;DHT22;4867;48.112;11.622;2023-05-31T02:09:13;13.10;99.90
9658;DHT22;4867;48.112;11.622;2023-05-31T02:11:41;13.00;99.90
9658;DHT22;4867;48.112;11.622;2023-05-31T02:14:09;13.10;99.90
9658;DHT22;4867;48.112;11.622;2023-05-31T02:16:36;12.90;99.90
9658;DHT22;4867;48.112;11.622;2023-05-31T02:19:04;12.80;99.90
9658;DHT22;4867;48.112;11.622;2023-05-31T02:21:34;12.70;99.90
9658;DHT22;4867;48.112;11.622;2023-05-31T02:24:04;12.80;99.90
9658;DHT22;4867;48.112;11.622;2023-05-31T02:26:32;12.60;99.90
9658;DHT22;4867;48.112;11.622;2023-05-31T02:28:59;12.70;99.90
9658;DHT22;4867;48.112;11.622;2023-05-31T02:31:27;12.60;99.90
9658;DHT22;4867;48.112;11.622;2023-05-31T02:33:54;12.60;99.90
9658;DHT22;4867;48.112;11.622;2023-05-31T02:36:22;12.60;99.90
9658;DHT22;4867;48.112;11.622;2023-05-31T02:38:49;12.50;99.90
9658;DHT22;4867;48.112;11.622;2023-05-31T02:41:17;12.60;99.90
9658;DHT22;4867;48.112;11.622;2023-05-31T02:43:44;12.50;99.90
9658;DHT22;4867;48.112;11.622;2023-05-31T02:46:12;12.50;99.90
9658;DHT22;4867;48.112;11.622;2023-05-31T02:48:39;12.50;99.90
9658;DHT22;4867;48.112;11.622;2023-05-31T02:51:06;12.40;99.90
9658;DHT22;4867;48.112;11.622;2023-05-31T02:54:03;12.40;99.90
9658;DHT22;4867;48.112;11.622;2023-05-31T02:56:32;12.30;99.90
9658;DHT22;4867;48.112;11.622;2023-05-31T02:59:00;12.20;99.90
9658;DHT22;4867;48.112;11.622;2023-05-31T03:01:29;12.20;99.90
9658;DHT22;4867;48.112;11.622;2023-05-31T03:04:24;12.00;99.90
9658;DHT22;4867;48.112;11.622;2023-05-31T03:06:54;12.10;99.90
9658;DHT22;4867;48.112;11.622;2023-05-31T03:09:23;12.00;99.90
9658;DHT22;4867;48.112;11.622;2023-05-31T03:11:51;12.00;99.90
9658;DHT22;4867;48.112;11.622;2023-05-31T03:14:21;11.90;99.90
9658;DHT22;4867;48.112;11.622;2023-05-31T03:16:53;11.90;99.90
9658;DHT22;4867;48.112;11.622;2023-05-31T03:19:20;11.90;99.90
9658;DHT22;4867;48.112;11.622;2023-05-31T03:21:51;11.90;99.90
9658;DHT22;4867;48.112;11.622;2023-05-31T03:24:18;11.90;99.90
9658;DHT22;4867;48.112;11.622;2023-05-31T03:26:48;11.80;99.90
9658;DHT22;4867;48.112;11.622;2023-05-31T03:29:17;11.80;99.90
9658;DHT22;4867;48.112;11.622;2023-05-31T03:31:46;11.80;99.90
9658;DHT22;4867;48.112;11.622;2023-05-31T03:34:13;11.80;99.90
9658;DHT22;4867;48.112;11.622;2023-05-31T03:36:42;11.80;99.90
9658;DHT22;4867;48.112;11.622;2023-05-31T03:39:32;11.80;99.90
9658;DHT22;4867;48.112;11.622;2023-05-31T03:42:01;11.80;99.90
9658;DHT22;4867;48.112;11.622;2023-05-31T03:44:29;11.80;99.90
9658;DHT22;4867;48.112;11.622;2023-05-31T03:46:57;11.90;99.90
9658;DHT22;4867;48.112;11.622;2023-05-31T03:49:25;12.20;99.90
9658;DHT22;4867;48.112;11.622;2023-05-31T03:51:52;12.60;99.90
9658;DHT22;4867;48.112;11.622;2023-05-31T03:54:19;13.00;99.90
9658;DHT22;4867;48.112;11.622;2023-05-31T03:56:47;13.40;99.90
9658;DHT22;4867;48.112;11.622;2023-05-31T03:59:15;13.70;99.90
9658;DHT22;4867;48.112;11.622;2023-05-31T04:01:42;14.00;99.90
9658;DHT22;4867;48.112;11.622;2023-05-31T04:04:10;14.20;99.90
9658;DHT22;4867;48.112;11.622;2023-05-31T04:06:38;14.60;99.90
9658;DHT22;4867;48.112;11.622;2023-05-31T04:09:05;14.80;99.90
9658;DHT22;4867;48.112;11.622;2023-05-31T04:11:32;14.90;99.90
9658;DHT22;4867;48.112;11.622;2023-05-31T04:14:00;15.00;99.90
9658;DHT22;4867;48.112;11.622;2023-05-31T04:16:28;15.10;99.90
9658;DHT22;4867;48.112;11.622;2023-05-31T04:18:56;15.00;99.90
9658;DHT22;4867;48.112;11.622;2023-05-31T04:21:24;15.10;99.90
9658;DHT22;4867;48.112;11.622;2023-05-31T04:23:52;15.10;99.90
9658;DHT22;4867;48.112;11.622;2023-05-31T04:26:20;15.10;99.90
9658;DHT22;4867;48.112;11.622;2023-05-31T04:28:48;15.00;99.90
9658;DHT22;4867;48.112;11.622;2023-05-31T04:31:19;14.90;99.90
9658;DHT22;4867;48.112;11.622;2023-05-31T04:33:47;14.90;99.90
9658;DHT22;4867;48.112;11.622;2023-05-31T04:36:14;14.80;99.90
9658;DHT22;4867;48.112;11.622;2023-05-31T04:38:43;14.90;99.90
9658;DHT22;4867;48.112;11.622;2023-05-31T04:41:10;14.80;99.90
9658;DHT22;4867;48.112;11.622;2023-05-31T04:43:38;14.90;99.90
9658;DHT22;4867;48.112;11.622;2023-05-31T04:46:07;15.10;99.90
9658;DHT22;4867;48.112;11.622;2023-05-31T04:48:39;15.30;99.90
9658;DHT22;4867;48.112;11.622;2023-05-31T04:51:07;15.60;99.90
9658;DHT22;4867;48.112;11.622;2023-05-31T04:53:34;15.90;99.90
9658;DHT22;4867;48.112;11.622;2023-05-31T04:56:02;16.30;99.90
9658;DHT22;4867;48.112;11.622;2023-05-31T04:58:32;16.70;99.90
9658;DHT22;4867;48.112;11.622;2023-05-31T05:00:59;17.30;99.90
9658;DHT22;4867;48.112;11.622;2023-05-31T05:03:35;17.70;99.90
9658;DHT22;4867;48.112;11.622;2023-05-31T05:06:16;18.10;99.90
9658;DHT22;4867;48.112;11.622;2023-05-31T05:08:44;18.20;98.80
9658;DHT22;4867;48.112;11.622;2023-05-31T05:11:14;18.40;98.70
9658;DHT22;4867;48.112;11.622;2023-05-31T05:13:43;18.50;99.10
9658;DHT22;4867;48.112;11.622;2023-05-31T05:16:11;18.50;98.50
9658;DHT22;4867;48.112;11.622;2023-05-31T05:18:40;18.40;98.50
9658;DHT22;4867;48.112;11.622;2023-05-31T05:21:07;18.20;98.00
9658;DHT22;4867;48.112;11.622;2023-05-31T05:23:37;17.90;98.50
9658;DHT22;4867;48.112;11.622;2023-05-31T05:26:06;17.40;98.80
9658;DHT22;4867;48.112;11.622;2023-05-31T05:28:34;17.20;99.20
9658;DHT22;4867;48.112;11.622;2023-05-31T05:31:02;16.90;99.50
9658;DHT22;4867;48.112;11.622;2023-05-31T05:33:35;16.80;99.70
9658;DHT22;4867;48.112;11.622;2023-05-31T05:36:04;16.60;99.90
9658;DHT22;4867;48.112;11.622;2023-05-31T05:38:34;16.40;99.90
9658;DHT22;4867;48.112;11.622;2023-05-31T05:41:01;16.10;99.90
9658;DHT22;4867;48.112;11.622;2023-05-31T05:43:29;16.10;99.90
9658;DHT22;4867;48.112;11.622;2023-05-31T05:46:06;16.00;99.90
9658;DHT22;4867;48.112;11.622;2023-05-31T05:48:33;15.90;99.90
9658;DHT22;4867;48.112;11.622;2023-05-31T05:51:02;15.90;99.90
9658;DHT22;4867;48.112;11.622;2023-05-31T05:53:30;16.00;99.90
9658;DHT22;4867;48.112;11.622;2023-05-31T05:55:59;16.00;99.90
9658;DHT22;4867;48.112;11.622;2023-05-31T05:58:32;16.10;99.90
9658;DHT22;4867;48.112;11.622;2023-05-31T06:01:19;16.10;99.90
9658;DHT22;4867;48.112;11.622;2023-05-31T06:03:51;16.10;99.90
9658;DHT22;4867;48.112;11.622;2023-05-31T06:06:19;16.20;99.90
9658;DHT22;4867;48.112;11.622;2023-05-31T06:08:46;16.30;99.90
9658;DHT22;4867;48.112;11.622;2023-05-31T06:11:15;16.40;99.90
9658;DHT22;4867;48.112;11.622;2023-05-31T06:13:43;16.50;99.90
9658;DHT22;4867;48.112;11.622;2023-05-31T06:16:14;16.70;99.90
9658;DHT22;4867;48.112;11.622;2023-05-31T06:18:42;16.70;99.90
9658;DHT22;4867;48.112;11.622;2023-05-31T06:21:09;16.80;99.90
9658;DHT22;4867;48.112;11.622;2023-05-31T06:23:37;16.80;99.90
9658;DHT22;4867;48.112;11.622;2023-05-31T06:26:04;16.80;99.90
9658;DHT22;4867;48.112;11.622;2023-05-31T06:28:32;17.00;99.90
9658;DHT22;4867;48.112;11.622;2023-05-31T06:31:08;17.10;99.90
9658;DHT22;4867;48.112;11.622;2023-05-31T06:33:36;17.10;99.90
9658;DHT22;4867;48.112;11.622;2023-05-31T06:36:04;17.10;99.90
9658;DHT22;4867;48.112;11.622;2023-05-31T06:38:32;17.20;99.90
9658;DHT22;4867;48.112;11.622;2023-05-31T06:41:00;17.40;99.90
9658;DHT22;4867;48.112;11.622;2023-05-31T06:43:28;17.40;99.90
9658;DHT22;4867;48.112;11.622;2023-05-31T06:46:14;17.50;99.90
9658;DHT22;4867;48.112;11.622;2023-05-31T06:49:10;17.70;99.80
9658;DHT22;4867;48.112;11.622;2023-05-31T06:51:57;17.60;99.50
9658;DHT22;4867;48.112;11.622;2023-05-31T06:54:28;17.70;99.70
9658;DHT22;4867;48.112;11.622;2023-05-31T06:56:57;17.80;99.80
9658;DHT22;4867;48.112;11.622;2023-05-31T06:59:24;17.90;99.70
9658;DHT22;4867;48.112;11.622;2023-05-31T07:01:52;18.00;99.70
9658;DHT22;4867;48.112;11.622;2023-05-31T07:04:21;18.20;99.90
9658;DHT22;4867;48.112;11.622;2023-05-31T07:06:49;18.50;99.80
9658;DHT22;4867;48.112;11.622;2023-05-31T07:09:17;18.50;99.00
9658;DHT22;4867;48.112;11.622;2023-05-31T07:11:53;18.50;98.80
9658;DHT22;4867;48.112;11.622;2023-05-31T07:14:21;18.60;98.90
9658;DHT22;4867;48.112;11.622;2023-05-31T07:16:50;18.60;98.90
9658;DHT22;4867;48.112;11.622;2023-05-31T07:19:17;18.80;98.00
9658;DHT22;4867;48.112;11.622;2023-05-31T07:21:45;18.80;98.00
9658;DHT22;4867;48.112;11.622;2023-05-31T07:24:12;18.90;98.60
9658;DHT22;4867;48.112;11.622;2023-05-31T07:26:40;19.10;98.10
9658;DHT22;4867;48.112;11.622;2023-05-31T07:29:07;19.10;97.90
9658;DHT22;4867;48.112;11.622;2023-05-31T07:31:34;19.30;98.10
9658;DHT22;4867;48.112;11.622;2023-05-31T07:34:01;19.40;97.30
9658;DHT22;4867;48.112;11.622;2023-05-31T07:36:29;19.50;97.60
9658;DHT22;4867;48.112;11.622;2023-05-31T07:38:57;19.50;97.20
9658;DHT22;4867;48.112;11.622;2023-05-31T07:41:26;19.50;97.00
9658;DHT22;4867;48.112;11.622;2023-05-31T07:43:54;19.40;96.80
9658;DHT22;4867;48.112;11.622;2023-05-31T07:46:22;19.50;97.00
9658;DHT22;4867;48.112;11.622;2023-05-31T07:48:50;19.60;97.20
9658;DHT22;4867;48.112;11.622;2023-05-31T07:51:17;19.70;97.10
9658;DHT22;4867;48.112;11.622;2023-05-31T07:53:45;19.90;96.70
9658;DHT22;4867;48.112;11.622;2023-05-31T07:56:14;19.90;96.40
9658;DHT22;4867;48.112;11.622;2023-05-31T07:58:41;20.00;96.90
9658;DHT22;4867;48.112;11.622;2023-05-31T08:01:08;20.00;95.90
9658;DHT22;4867;48.112;11.622;2023-05-31T08:03:36;20.00;96.40
9658;DHT22;4867;48.112;11.622;2023-05-31T08:06:03;20.20;96.40
9658;DHT22;4867;48.112;11.622;2023-05-31T08:08:32;20.20;95.30
9658;DHT22;4867;48.112;11.622;2023-05-31T08:11:00;20.20;95.60
9658;DHT22;4867;48.112;11.622;2023-05-31T08:13:28;20.30;96.00
9658;DHT22;4867;48.112;11.622;2023-05-31T08:15:56;20.40;95.80
9658;DHT22;4867;48.112;11.622;2023-05-31T08:18:23;20.50;95.60
9658;DHT22;4867;48.112;11.622;2023-05-31T08:20:50;20.50;95.40
9658;DHT22;4867;48.112;11.622;2023-05-31T08:23:18;20.50;95.00
9658;DHT22;4867;48.112;11.622;2023-05-31T08:25:46;20.70;95.20
9658;DHT22;4867;48.112;11.622;2023-05-31T08:28:14;20.40;94.40
9658;DHT22;4867;48.112;11.622;2023-05-31T08:30:42;20.50;94.40
9658;DHT22;4867;48.112;11.622;2023-05-31T08:33:12;20.30;94.40
9658;DHT22;4867;48.112;11.622;2023-05-31T08:35:39;20.40;94.60
9658;DHT22;4867;48.112;11.622;2023-05-31T08:38:08;20.60;94.80
9658;DHT22;4867;48.112;11.622;2023-05-31T08:40:35;20.70;94.20
9658;DHT22;4867;48.112;11.622;2023-05-31T08:43:06;20.80;93.60
9658;DHT22;4867;48.112;11.622;2023-05-31T08:45:43;20.80;93.60
9658;DHT22;4867;48.112;11.622;2023-05-31T08:50:54;20.80;92.50
9658;DHT22;4867;48.112;11.622;2023-05-31T08:53:26;20.60;92.80
9658;DHT22;4867;48.112;11.622;2023-05-31T08:55:54;20.70;93.00
9658;DHT22;4867;48.112;11.622;2023-05-31T08:58:22;20.80;93.20
9658;DHT22;4867;48.112;11.622;2023-05-31T09:00:50;20.90;92.70
9658;DHT22;4867;48.112;11.622;2023-05-31T09:03:18;21.00;92.60
9658;DHT22;4867;48.112;11.622;2023-05-31T09:05:45;20.90;91.70
9658;DHT22;4867;48.112;11.622;2023-05-31T09:08:12;20.90;91.90
9658;DHT22;4867;48.112;11.622;2023-05-31T09:10:41;21.00;92.20
9658;DHT22;4867;48.112;11.622;2023-05-31T09:13:08;21.10;91.70
9658;DHT22;4867;48.112;11.622;2023-05-31T09:15:36;21.10;91.20
9658;DHT22;4867;48.112;11.622;2023-05-31T09:18:19;21.20;91.10
9658;DHT22;4867;48.112;11.622;2023-05-31T09:20:49;21.20;90.70
9658;DHT22;4867;48.112;11.622;2023-05-31T09:23:17;21.20;90.60
9658;DHT22;4867;48.112;11.622;2023-05-31T09:25:46;21.20;90.00
9658;DHT22;4867;48.112;11.622;2023-05-31T09:28:14;21.10;90.20
9658;DHT22;4867;48.112;11.622;2023-05-31T09:30:43;21.20;90.50
9658;DHT22;4867;48.112;11.622;2023-05-31T09:33:13;21.40;91.40
9658;DHT22;4867;48.112;11.622;2023-05-31T09:36:07;21.60;90.10
9658;DHT22;4867;48.112;11.622;2023-05-31T09:38:35;21.50;87.80
9658;DHT22;4867;48.112;11.622;2023-05-31T09:41:20;21.50;89.10
9658;DHT22;4867;48.112;11.622;2023-05-31T09:43:48;21.70;88.10
9658;DHT22;4867;48.112;11.622;2023-05-31T09:46:17;21.70;88.40
9658;DHT22;4867;48.112;11.622;2023-05-31T09:48:56;21.70;89.20
9658;DHT22;4867;48.112;11.622;2023-05-31T09:51:24;21.70;89.70
9658;DHT22;4867;48.112;11.622;2023-05-31T09:53:51;21.90;87.90
9658;DHT22;4867;48.112;11.622;2023-05-31T09:56:24;22.00;87.70
9658;DHT22;4867;48.112;11.622;2023-05-31T09:58:56;22.10;86.40
9658;DHT22;4867;48.112;11.622;2023-05-31T10:01:23;22.10;85.00
9658;DHT22;4867;48.112;11.622;2023-05-31T10:03:51;22.10;84.80
9658;DHT22;4867;48.112;11.622;2023-05-31T10:06:19;21.90;84.40
9658;DHT22;4867;48.112;11.622;2023-05-31T10:08:49;21.90;83.50
9658;DHT22;4867;48.112;11.622;2023-05-31T10:11:19;22.00;84.30
9658;DHT22;4867;48.112;11.622;2023-05-31T10:13:50;22.10;84.50
9658;DHT22;4867;48.112;11.622;2023-05-31T10:16:20;22.20;84.40
9658;DHT22;4867;48.112;11.622;2023-05-31T10:18:52;22.40;83.70
9658;DHT22;4867;48.112;11.622;2023-05-31T10:21:25;22.30;80.60
9658;DHT22;4867;48.112;11.622;2023-05-31T10:24:02;22.30;80.90
9658;DHT22;4867;48.112;11.622;2023-05-31T10:26:56;22.20;81.40
9658;DHT22;4867;48.112;11.622;2023-05-31T10:29:35;22.20;81.30
9658;DHT22;4867;48.112;11.622;2023-05-31T10:32:16;22.10;80.60
9658;DHT22;4867;48.112;11.622;2023-05-31T10:34:47;22.10;81.10
9658;DHT22;4867;48.112;11.622;2023-05-31T10:37:14;22.10;79.90
9658;DHT22;4867;48.112;11.622;2023-05-31T10:45:27;22.60;81.00
9658;DHT22;4867;48.112;11.622;2023-05-31T10:48:06;22.60;79.40
9658;DHT22;4867;48.112;11.622;2023-05-31T10:50:57;22.50;80.20
9658;DHT22;4867;48.112;11.622;2023-05-31T10:56:08;22.40;80.60
9658;DHT22;4867;48.112;11.622;2023-05-31T10:58:40;22.60;81.30
9658;DHT22;4867;48.112;11.622;2023-05-31T11:01:13;22.60;79.40
9658;DHT22;4867;48.112;11.622;2023-05-31T11:03:49;22.50;79.70
9658;DHT22;4867;48.112;11.622;2023-05-31T11:06:23;22.60;80.40
9658;DHT22;4867;48.112;11.622;2023-05-31T11:08:57;22.50;79.60
9658;DHT22;4867;48.112;11.622;2023-05-31T11:14:06;22.60;79.00
9658;DHT22;4867;48.112;11.622;2023-05-31T11:19:15;22.60;78.30
9658;DHT22;4867;48.112;11.622;2023-05-31T11:21:54;22.70;78.80
9658;DHT22;4867;48.112;11.622;2023-05-31T11:24:38;22.90;79.80
9658;DHT22;4867;48.112;11.622;2023-05-31T11:27:11;22.90;79.40
9658;DHT22;4867;48.112;11.622;2023-05-31T11:32:17;23.30;79.10
9658;DHT22;4867;48.112;11.622;2023-05-31T11:34:56;23.30;78.10
9658;DHT22;4867;48.112;11.622;2023-05-31T11:37:28;23.30;79.10
9658;DHT22;4867;48.112;11.622;2023-05-31T11:39:56;23.50;79.30
9658;DHT22;4867;48.112;11.622;2023-05-31T11:42:23;23.50;79.50
9658;DHT22;4867;48.112;11.622;2023-05-31T11:44:51;23.60;79.20
9658;DHT22;4867;48.112;11.622;2023-05-31T11:47:20;23.40;77.70
9658;DHT22;4867;48.112;11.622;2023-05-31T11:49:48;23.50;78.70
9658;DHT22;4867;48.112;11.622;2023-05-31T11:52:18;23.50;77.00
9658;DHT22;4867;48.112;11.622;2023-05-31T11:54:46;23.50;76.70
9658;DHT22;4867;48.112;11.622;2023-05-31T11:57:16;23.60;78.90
9658;DHT22;4867;48.112;11.622;2023-05-31T11:59:43;23.50;77.40
9658;DHT22;4867;48.112;11.622;2023-05-31T12:02:11;23.40;78.20
9658;DHT22;4867;48.112;11.622;2023-05-31T12:04:41;23.30;79.00
9658;DHT22;4867;48.112;11.622;2023-05-31T12:07:15;23.30;79.60
9658;DHT22;4867;48.112;11.622;2023-05-31T12:09:49;23.40;79.70
9658;DHT22;4867;48.112;11.622;2023-05-31T12:12:17;23.50;79.80
9658;DHT22;4867;48.112;11.622;2023-05-31T12:14:54;23.50;79.20
9658;DHT22;4867;48.112;11.622;2023-05-31T12:17:21;23.50;79.40
9658;DHT22;4867;48.112;11.622;2023-05-31T12:19:50;23.50;79.30
9658;DHT22;4867;48.112;11.622;2023-05-31T12:22:17;23.40;79.50
9658;DHT22;4867;48.112;11.622;2023-05-31T12:24:51;23.40;79.50
9658;DHT22;4867;48.112;11.622;2023-05-31T12:27:26;23.50;79.90
9658;DHT22;4867;48.112;11.622;2023-05-31T12:30:16;23.60;79.00
9658;DHT22;4867;48.112;11.622;2023-05-31T12:32:45;23.60;78.00
9658;DHT22;4867;48.112;11.622;2023-05-31T12:35:13;23.60;76.30
9658;DHT22;4867;48.112;11.622;2023-05-31T12:38:01;23.50;77.60
9658;DHT22;4867;48.112;11.622;2023-05-31T12:40:28;23.50;78.00
9658;DHT22;4867;48.112;11.622;2023-05-31T12:43:01;23.50;77.80
9658;DHT22;4867;48.112;11.622;2023-05-31T12:45:29;23.50;77.70
9658;DHT22;4867;48.112;11.622;2023-05-31T12:47:57;23.60;78.10
9658;DHT22;4867;48.112;11.622;2023-05-31T12:50:28;23.70;77.30
9658;DHT22;4867;48.112;11.622;2023-05-31T12:52:57;24.00;77.60
9658;DHT22;4867;48.112;11.622;2023-05-31T12:55:24;24.10;75.70
9658;DHT22;4867;48.112;11.622;2023-05-31T12:57:52;23.90;75.40
9658;DHT22;4867;48.112;11.622;2023-05-31T13:00:20;24.00;74.90
9658;DHT22;4867;48.112;11.622;2023-05-31T13:02:47;24.00;74.40
9658;DHT22;4867;48.112;11.622;2023-05-31T13:05:17;24.10;75.10
9658;DHT22;4867;48.112;11.622;2023-05-31T13:07:44;24.20;73.30
9658;DHT22;4867;48.112;11.622;2023-05-31T13:10:13;24.30;74.80
9658;DHT22;4867;48.112;11.622;2023-05-31T13:12:41;24.30;73.40
9658;DHT22;4867;48.112;11.622;2023-05-31T13:15:09;24.20;74.40
9658;DHT22;4867;48.112;11.622;2023-05-31T13:17:36;24.30;75.60
9658;DHT22;4867;48.112;11.622;2023-05-31T13:20:04;24.40;74.10
9658;DHT22;4867;48.112;11.622;2023-05-31T13:22:40;24.40;73.90
9658;DHT22;4867;48.112;11.622;2023-05-31T13:25:08;24.40;74.10
9658;DHT22;4867;48.112;11.622;2023-05-31T13:27:36;24.30;74.00
9658;DHT22;4867;48.112;11.622;2023-05-31T13:30:04;24.30;74.70
9658;DHT22;4867;48.112;11.622;2023-05-31T13:32:32;24.30;74.20
9658;DHT22;4867;48.112;11.622;2023-05-31T13:34:59;24.20;72.80
9658;DHT22;4867;48.112;11.622;2023-05-31T13:37:27;24.10;73.10
9658;DHT22;4867;48.112;11.622;2023-05-31T13:39:55;24.10;72.80
9658;DHT22;4867;48.112;11.622;2023-05-31T13:42:23;24.20;73.50
9658;DHT22;4867;48.112;11.622;2023-05-31T13:44:50;24.20;73.70
9658;DHT22;4867;48.112;11.622;2023-05-31T13:47:18;24.30;74.50
9658;DHT22;4867;48.112;11.622;2023-05-31T13:49:45;24.30;73.60
9658;DHT22;4867;48.112;11.622;2023-05-31T13:52:13;24.30;72.40
9658;DHT22;4867;48.112;11.622;2023-05-31T13:54:41;24.30;73.40
9658;DHT22;4867;48.112;11.622;2023-05-31T13:57:09;24.40;73.00
9658;DHT22;4867;48.112;11.622;2023-05-31T13:59:36;24.40;73.20
9658;DHT22;4867;48.112;11.622;2023-05-31T14:02:03;24.30;71.70
9658;DHT22;4867;48.112;11.622;2023-05-31T14:04:30;24.30;71.80
9658;DHT22;4867;48.112;11.622;2023-05-31T14:06:58;24.20;70.70
9658;DHT22;4867;48.112;11.622;2023-05-31T14:09:25;24.10;70.80
9658;DHT22;4867;48.112;11.622;2023-05-31T14:11:53;24.20;72.10
9658;DHT22;4867;48.112;11.622;2023-05-31T14:14:22;24.30;72.80
9658;DHT22;4867;48.112;11.622;2023-05-31T14:16:49;24.40;72.60
9658;DHT22;4867;48.112;11.622;2023-05-31T14:19:18;24.40;71.50
9658;DHT22;4867;48.112;11.622;2023-05-31T14:21:45;24.50;72.10
9658;DHT22;4867;48.112;11.622;2023-05-31T14:24:13;24.40;71.10
9658;DHT22;4867;48.112;11.622;2023-05-31T14:26:43;24.40;71.90
9658;DHT22;4867;48.112;11.622;2023-05-31T14:29:10;24.40;71.40
9658;DHT22;4867;48.112;11.622;2023-05-31T14:31:37;24.50;71.80
9658;DHT22;4867;48.112;11.622;2023-05-31T14:34:05;24.60;71.40
9658;DHT22;4867;48.112;11.622;2023-05-31T14:36:32;24.60;70.40
9658;DHT22;4867;48.112;11.622;2023-05-31T14:39:00;24.50;70.10
9658;DHT22;4867;48.112;11.622;2023-05-31T14:41:27;24.40;71.00
9658;DHT22;4867;48.112;11.622;2023-05-31T14:43:55;24.50;71.00
9658;DHT22;4867;48.112;11.622;2023-05-31T14:46:22;24.50;70.10
9658;DHT22;4867;48.112;11.622;2023-05-31T14:48:50;24.60;69.70
9658;DHT22;4867;48.112;11.622;2023-05-31T14:51:18;24.60;68.90
9658;DHT22;4867;48.112;11.622;2023-05-31T14:53:46;24.70;67.80
9658;DHT22;4867;48.112;11.622;2023-05-31T14:56:14;24.60;67.20
9658;DHT22;4867;48.112;11.622;2023-05-31T14:58:45;24.60;67.70
9658;DHT22;4867;48.112;11.622;2023-05-31T15:01:14;24.60;67.00
9658;DHT22;4867;48.112;11.622;2023-05-31T15:03:42;24.60;66.70
9658;DHT22;4867;48.112;11.622;2023-05-31T15:06:09;24.40;67.70
9658;DHT22;4867;48.112;11.622;2023-05-31T15:08:37;24.40;68.80
9658;DHT22;4867;48.112;11.622;2023-05-31T15:11:04;24.50;70.50
9658;DHT22;4867;48.112;11.622;2023-05-31T15:13:31;24.60;71.00
9658;DHT22;4867;48.112;11.622;2023-05-31T15:15:59;24.60;70.80
9658;DHT22;4867;48.112;11.622;2023-05-31T15:18:27;24.50;70.40
9658;DHT22;4867;48.112;11.622;2023-05-31T15:20:55;24.60;72.20
9658;DHT22;4867;48.112;11.622;2023-05-31T15:23:22;24.50;72.70
9658;DHT22;4867;48.112;11.622;2023-05-31T15:25:50;24.50;73.10
9658;DHT22;4867;48.112;11.622;2023-05-31T15:28:17;24.60;74.20
9658;DHT22;4867;48.112;11.622;2023-05-31T15:30:45;24.60;72.80
9658;DHT22;4867;48.112;11.622;2023-05-31T15:33:12;24.60;73.60
9658;DHT22;4867;48.112;11.622;2023-05-31T15:35:39;24.70;74.40
9658;DHT22;4867;48.112;11.622;2023-05-31T15:38:06;24.70;74.60
9658;DHT22;4867;48.112;11.622;2023-05-31T15:40:34;24.80;75.00
9658;DHT22;4867;48.112;11.622;2023-05-31T15:43:01;24.80;74.60
9658;DHT22;4867;48.112;11.622;2023-05-31T15:45:29;25.00;74.40
9658;DHT22;4867;48.112;11.622;2023-05-31T15:47:56;25.20;74.00
9658;DHT22;4867;48.112;11.622;2023-05-31T15:50:23;25.50;73.70
9658;DHT22;4867;48.112;11.622;2023-05-31T15:52:50;25.80;73.50
9658;DHT22;4867;48.112;11.622;2023-05-31T15:55:18;26.10;74.00
9658;DHT22;4867;48.112;11.622;2023-05-31T15:57:45;26.50;74.00
9658;DHT22;4867;48.112;11.622;2023-05-31T16:00:13;26.80;72.70
9658;DHT22;4867;48.112;11.622;2023-05-31T16:02:40;27.10;72.40
9658;DHT22;4867;48.112;11.622;2023-05-31T16:05:08;27.40;72.00
9658;DHT22;4867;48.112;11.622;2023-05-31T16:07:37;27.70;70.90
9658;DHT22;4867;48.112;11.622;2023-05-31T16:10:05;28.00;71.10
9658;DHT22;4867;48.112;11.622;2023-05-31T16:12:32;28.30;70.80
9658;DHT22;4867;48.112;11.622;2023-05-31T16:14:59;28.50;69.90
9658;DHT22;4867;48.112;11.622;2023-05-31T16:17:28;28.90;70.90
9658;DHT22;4867;48.112;11.622;2023-05-31T16:19:55;29.30;69.30